Time;durP1;ratioP1;P1;durP2;ratioP2;P2;SDS_P1;SDS_P2;PMS_P1;PMS_P2;Temp;Humidity;BMP_temperature;BMP_pressure;BME280_temperature;BME280_humidity;BME280_pressure;Samples;Min_cycle;Max_cycle;Signal;HPM_P1;HPM_P2
2021/09/18 00:02:13;;;;;;;12.43;9.60;;;;;;;20.33;69.96;98275.28;1766656;80;21535;-42
2021/09/18 00:04:39;;;;;;;13.68;10.05;;;;;;;20.30;70.04;98273.45;1750361;80;21046;-42
2021/09/18 00:07:05;;;;;;;15.18;9.00;;;;;;;20.29;70.11;98267.75;1772186;80;21069;-42
2021/09/18 00:09:32;;;;;;;12.85;9.90;;;;;;;20.31;70.11;98270.86;1771194;80;21964;-42
2021/09/18 00:12:01;;;;;;;17.55;10.28;;;;;;;20.35;70.15;98276.22;1751199;80;20973;-42
2021/09/18 00:14:27;;;;;;;16.02;10.53;;;;;;;20.32;70.20;98268.27;1744555;80;21005;-42
2021/09/18 00:16:54;;;;;;;20.45;9.50;;;;;;;20.31;70.27;98268.11;1758016;80;21084;-42
2021/09/18 00:19:22;;;;;;;12.80;9.33;;;;;;;20.33;70.23;98267.03;1772011;80;21083;-42
2021/09/18 00:21:49;;;;;;;15.43;9.58;;;;;;;20.38;70.12;98265.06;1763480;80;21897;-42
2021/09/18 00:24:17;;;;;;;14.78;9.18;;;;;;;20.38;70.10;98263.69;1741470;80;21080;-42
2021/09/18 00:26:45;;;;;;;13.35;9.70;;;;;;;20.35;70.19;98268.73;1764016;80;20921;-42
2021/09/18 00:29:12;;;;;;;15.53;9.30;;;;;;;20.31;70.27;98257.09;1774166;80;21508;-42
2021/09/18 00:31:38;;;;;;;15.35;9.03;;;;;;;20.29;70.34;98258.11;1756544;80;21077;-42
2021/09/18 00:34:06;;;;;;;11.15;9.03;;;;;;;20.31;70.26;98257.09;1764230;80;20965;-42
2021/09/18 00:36:35;;;;;;;13.78;9.90;;;;;;;20.31;70.33;98255.72;1754538;80;20970;-42
2021/09/18 00:39:03;;;;;;;14.50;10.08;;;;;;;20.29;70.43;98255.36;1753134;80;20929;-42
2021/09/18 00:41:30;;;;;;;11.22;9.18;;;;;;;20.26;70.45;98259.03;1757232;80;20922;-42
2021/09/18 00:43:58;;;;;;;12.07;8.90;;;;;;;20.26;70.50;98259.03;1744203;80;21033;-42
2021/09/18 00:46:24;;;;;;;17.82;9.80;;;;;;;20.31;70.49;98254.34;1751768;80;21093;-42
2021/09/18 00:48:52;;;;;;;13.00;9.18;;;;;;;20.11;70.47;98223.63;1751100;82;21538;-42
2021/09/18 00:51:19;;;;;;;16.62;10.58;;;;;;;20.34;70.53;98256.19;1762684;80;21002;-42
2021/09/18 00:53:46;;;;;;;13.45;9.40;;;;;;;20.34;70.55;98249.91;1781194;80;21515;-42
2021/09/18 00:56:13;;;;;;;13.45;8.93;;;;;;;20.36;70.50;98243.35;1767217;80;21012;-42
2021/09/18 00:58:41;;;;;;;16.62;10.15;;;;;;;20.41;70.46;98240.62;1751938;80;21528;-42
2021/09/18 01:01:08;;;;;;;13.70;10.23;;;;;;;20.39;70.53;98231.42;1756962;80;20979;-42
2021/09/18 01:03:37;;;;;;;13.65;9.73;;;;;;;20.34;70.66;98223.76;1756421;80;21066;-41
2021/09/18 01:06:03;;;;;;;11.97;8.90;;;;;;;20.33;70.77;98219.50;1777777;80;21080;-42
2021/09/18 01:08:30;;;;;;;18.85;9.78;;;;;;;20.37;70.77;98228.38;1764496;80;21029;-42
2021/09/18 01:10:58;;;;;;;12.98;9.68;;;;;;;20.41;70.71;98213.09;1749732;80;20961;-42
2021/09/18 01:13:26;;;;;;;13.08;9.85;;;;;;;20.43;70.68;98215.53;1755162;80;20926;-41
2021/09/18 01:15:54;;;;;;;16.67;10.18;;;;;;;20.42;70.78;98216.77;1775411;80;21479;-42
2021/09/18 01:18:20;;;;;;;12.00;9.43;;;;;;;20.38;70.85;98218.91;1781985;80;21052;-42
2021/09/18 01:20:49;;;;;;;21.73;9.45;;;;;;;20.38;70.86;98212.77;1780604;80;21040;-42
2021/09/18 01:23:22;;;;;;;15.78;9.85;;;;;;;20.42;70.82;98213.25;1760573;80;21120;-42
2021/09/18 01:25:49;;;;;;;14.20;10.15;;;;;;;20.42;70.87;98205.77;1775303;80;20917;-42
2021/09/18 01:28:17;;;;;;;12.88;10.03;;;;;;;20.41;70.93;98208.35;1782344;80;20965;-42
2021/09/18 01:30:45;;;;;;;16.42;9.30;;;;;;;20.38;70.94;98201.02;1772591;80;21052;-42
2021/09/18 01:33:12;;;;;;;14.60;10.10;;;;;;;20.37;71.01;98205.75;1752422;80;21499;-42
2021/09/18 01:35:40;;;;;;;15.30;10.10;;;;;;;20.39;70.97;98202.52;1757633;80;20973;-42
2021/09/18 01:38:07;;;;;;;13.83;10.00;;;;;;;20.39;71.06;98205.28;1755246;80;21083;-42
2021/09/18 01:40:36;;;;;;;15.03;10.60;;;;;;;20.36;71.11;98198.70;1756837;80;21501;-42
2021/09/18 01:43:04;;;;;;;16.00;9.40;;;;;;;20.34;71.18;98201.13;1755801;80;21708;-42
2021/09/18 01:45:31;;;;;;;13.95;9.38;;;;;;;20.32;71.28;98191.80;1723948;81;21103;-42
2021/09/18 01:48:01;;;;;;;16.52;9.85;;;;;;;20.38;71.23;98195.51;1753704;81;21082;-42
2021/09/18 01:50:46;;;;;;;17.82;11.15;;;;;;;20.42;71.13;98196.73;1759917;80;20998;-42
2021/09/18 01:53:11;;;;;;;16.73;10.98;;;;;;;20.37;71.28;98194.73;1780887;80;20922;-42
2021/09/18 01:55:38;;;;;;;16.05;10.43;;;;;;;20.31;71.41;98193.78;1769419;80;21541;-42
2021/09/18 01:58:06;;;;;;;14.58;9.75;;;;;;;20.31;71.51;98184.76;1778368;80;21104;-42
2021/09/18 02:00:42;;;;;;;15.72;10.15;;;;;;;20.35;71.48;98189.52;1780597;80;21174;-42
2021/09/18 02:03:08;;;;;;;16.95;10.58;;;;;;;20.38;71.37;98183.12;1754135;80;21068;-42
2021/09/18 02:05:36;;;;;;;13.53;11.00;;;;;;;20.36;71.43;98179.44;1763693;80;21072;-42
2021/09/18 02:08:04;;;;;;;15.70;10.65;;;;;;;20.34;71.52;98184.61;1778370;80;21053;-42
2021/09/18 02:10:31;;;;;;;14.07;9.55;;;;;;;20.34;71.52;98183.23;1784027;80;21064;-43
2021/09/18 02:13:04;;;;;;;15.15;10.65;;;;;;;20.37;71.51;98182.34;1756708;80;20981;-42
2021/09/18 02:15:33;;;;;;;16.07;11.00;;;;;;;20.42;71.44;98181.59;1728662;82;21064;-42
2021/09/18 02:18:01;;;;;;;16.45;11.12;;;;;;;20.37;71.57;98182.34;1754354;80;20911;-42
2021/09/18 02:20:29;;;;;;;19.42;10.55;;;;;;;20.35;71.66;98175.75;1780807;80;20941;-42
2021/09/18 02:22:57;;;;;;;17.23;10.60;;;;;;;20.33;71.69;98174.81;1751210;80;21060;-42
2021/09/18 02:25:26;;;;;;;16.05;10.85;;;;;;;20.36;71.68;98170.41;1783186;80;22008;-42
2021/09/18 02:27:52;;;;;;;15.15;11.63;;;;;;;20.38;71.69;98165.97;1782662;80;21015;-42
2021/09/18 02:30:24;;;;;;;13.38;10.78;;;;;;;20.37;71.73;98166.44;1718777;82;21037;-42
2021/09/18 02:32:50;;;;;;;12.95;9.90;;;;;;;20.33;71.86;98160.31;1767459;80;21004;-42
2021/09/18 02:35:19;;;;;;;15.18;10.45;;;;;;;20.32;71.94;98156.02;1757035;80;21057;-42
2021/09/18 02:37:46;;;;;;;17.65;10.78;;;;;;;20.32;71.95;98152.66;1718133;82;21123;-42
2021/09/18 02:40:15;;;;;;;16.40;11.40;;;;;;;20.32;72.04;98156.02;1753758;80;21012;-42
2021/09/18 02:42:47;;;;;;;20.23;11.43;;;;;;;20.31;72.12;98146.23;1773980;80;20953;-42
2021/09/18 02:45:14;;;;;;;15.68;11.25;;;;;;;20.28;72.17;98147.86;1764343;79;21590;-42
2021/09/18 02:47:42;;;;;;;20.43;10.38;;;;;;;20.25;72.32;98150.15;1742952;81;21018;-42
2021/09/18 02:50:11;;;;;;;16.75;11.38;;;;;;;20.25;72.31;98148.77;1711092;82;21151;-41
2021/09/18 02:52:39;;;;;;;;;;;;;;;20.28;72.36;98155.38;1763830;80;21032;-42
2021/09/18 02:55:08;;;;;;;21.00;12.05;;;;;;;20.28;72.41;98146.48;1762495;80;20124;-42
2021/09/18 02:57:36;;;;;;;18.57;11.85;;;;;;;20.16;72.69;98143.23;1743122;81;20984;-42
2021/09/18 03:00:07;;;;;;;19.37;11.05;;;;;;;20.16;72.79;98152.87;1743081;82;20907;-42
2021/09/18 03:02:34;;;;;;;15.20;11.22;;;;;;;20.18;72.69;98149.67;1731247;82;21122;-42
2021/09/18 03:05:00;;;;;;;19.45;11.65;;;;;;;20.18;72.75;98145.55;1746643;80;21592;-42
2021/09/18 03:07:27;;;;;;;17.07;12.35;;;;;;;20.16;72.84;98145.99;1758702;80;20961;-42
2021/09/18 03:09:53;;;;;;;13.50;10.65;;;;;;;20.14;72.92;98142.17;1742990;82;21022;-42
2021/09/18 03:12:21;;;;;;;19.92;11.78;;;;;;;20.14;72.90;98138.78;1752755;80;21065;-42
2021/09/18 03:14:49;;;;;;;15.48;11.33;;;;;;;20.18;72.79;98138.06;1729381;82;20961;-42
2021/09/18 03:17:17;;;;;;;17.00;12.10;;;;;;;20.16;72.81;98134.22;1772785;80;20957;-42
2021/09/18 03:19:44;;;;;;;17.95;11.68;;;;;;;20.12;72.88;98130.23;1772335;80;20985;-42
2021/09/18 03:22:13;;;;;;;15.50;11.12;;;;;;;20.10;72.94;98128.53;1764706;80;21536;-42
2021/09/18 03:24:41;;;;;;;14.95;11.40;;;;;;;20.11;72.90;98132.82;1766338;80;21043;-42
2021/09/18 03:27:09;;;;;;;21.02;12.20;;;;;;;20.16;72.80;98130.86;1747380;80;21101;-42
2021/09/18 03:29:37;;;;;;;18.02;12.55;;;;;;;20.15;72.68;98124.42;1742904;82;20961;-42
2021/09/18 03:32:05;;;;;;;18.70;11.60;;;;;;;20.10;72.84;98121.66;1746306;80;21093;-42
2021/09/18 03:34:33;;;;;;;21.23;11.15;;;;;;;20.13;72.73;98118.02;1771590;80;21013;-42
2021/09/18 03:37:00;;;;;;;14.45;11.53;;;;;;;20.19;72.57;98117.55;1762398;80;21057;-42
2021/09/18 03:39:27;;;;;;;22.77;13.03;;;;;;;20.21;72.46;98115.12;1749709;80;21151;-42
2021/09/18 03:41:55;;;;;;;17.35;12.85;;;;;;;20.19;72.41;98117.55;1753274;80;21512;-42
2021/09/18 03:44:21;;;;;;;18.25;11.97;;;;;;;20.19;72.42;98118.93;1750120;80;21495;-42
2021/09/18 03:46:50;;;;;;;16.02;11.18;;;;;;;20.18;72.34;98117.42;1755735;80;21017;-42
2021/09/18 03:49:16;;;;;;;17.80;11.97;;;;;;;20.21;72.21;98117.87;1751241;82;21052;-42
2021/09/18 03:51:43;;;;;;;19.48;12.90;;;;;;;20.25;72.05;98110.84;1754565;80;21117;-42
2021/09/18 03:54:10;;;;;;;19.90;12.63;;;;;;;20.23;72.01;98111.94;1751535;80;20997;-42
2021/09/18 03:56:38;;;;;;;17.45;12.25;;;;;;;20.19;71.98;98115.41;1771800;80;20948;-42
2021/09/18 03:59:05;;;;;;;18.27;10.45;;;;;;;20.13;71.98;98105.63;1770803;80;22119;-42
2021/09/18 04:01:32;;;;;;;16.45;12.23;;;;;;;20.12;71.98;98101.34;1777659;80;21020;-42
2021/09/18 04:04:00;;;;;;;15.05;12.95;;;;;;;20.11;71.91;98110.05;1770120;80;21521;-42
2021/09/18 04:06:27;;;;;;;18.17;13.88;;;;;;;20.01;72.08;98103.73;1750994;82;21021;-42
2021/09/18 04:08:54;;;;;;;15.98;11.15;;;;;;;19.95;72.27;98106.31;1755324;80;21038;-42
2021/09/18 04:11:21;;;;;;;20.62;11.90;;;;;;;19.92;72.32;98095.45;1756739;80;21029;-42
2021/09/18 04:13:51;;;;;;;13.78;12.20;;;;;;;19.96;72.20;98099.59;1766241;80;20985;-42
2021/09/18 04:16:20;;;;;;;16.52;12.23;;;;;;;19.95;72.15;98093.16;1750902;80;21825;-42
2021/09/18 04:18:48;;;;;;;21.60;13.32;;;;;;;19.91;72.27;98099.41;1761623;80;20957;-42
2021/09/18 04:21:17;;;;;;;16.25;11.60;;;;;;;19.88;72.28;98098.95;1765602;80;21555;-42
2021/09/18 04:23:44;;;;;;;20.60;12.40;;;;;;;19.85;72.34;98103.97;1752211;80;21104;-42
2021/09/18 04:26:12;;;;;;;20.35;12.55;;;;;;;19.88;72.31;98103.08;1766621;80;20964;-42
2021/09/18 04:28:39;;;;;;;20.43;13.50;;;;;;;19.88;72.37;98107.20;1764762;80;21150;-42
2021/09/18 04:31:06;;;;;;;19.37;13.10;;;;;;;19.85;72.35;98110.84;1754069;80;21062;-42
2021/09/18 04:33:32;;;;;;;14.53;11.90;;;;;;;19.80;72.53;98104.58;1754496;80;20966;-42
2021/09/18 04:35:59;;;;;;;14.47;11.78;;;;;;;19.81;72.73;98107.47;1763840;80;21057;-41
2021/09/18 04:38:25;;;;;;;18.10;12.45;;;;;;;19.86;72.63;98107.66;1773002;80;20994;-42
2021/09/18 04:40:51;;;;;;;16.73;12.85;;;;;;;19.87;72.70;98106.44;1777162;80;21144;-42
2021/09/18 04:43:19;;;;;;;21.02;12.45;;;;;;;19.87;72.74;98108.42;1764813;80;20972;-42
2021/09/18 04:45:45;;;;;;;19.48;12.65;;;;;;;19.83;72.81;98107.80;1774674;80;21645;-42
2021/09/18 04:48:11;;;;;;;15.25;11.78;;;;;;;19.82;73.03;98104.88;1761261;80;21068;-42
2021/09/18 04:50:38;;;;;;;17.75;12.33;;;;;;;19.83;72.81;98101.69;1762322;80;21036;-42
2021/09/18 04:53:05;;;;;;;17.37;13.05;;;;;;;19.83;72.85;98102.30;1780017;80;21118;-42
2021/09/18 04:55:31;;;;;;;20.02;14.13;;;;;;;19.80;72.99;98101.83;1755303;80;21583;-41
2021/09/18 04:57:58;;;;;;;17.67;12.65;;;;;;;19.78;73.10;98105.02;1748996;82;21028;-42
2021/09/18 05:00:25;;;;;;;16.77;11.95;;;;;;;19.74;73.10;98103.02;1749106;80;21535;-42
2021/09/18 05:02:51;;;;;;;17.80;12.78;;;;;;;19.73;73.04;98099.34;1780055;80;21037;-42
2021/09/18 05:05:18;;;;;;;17.12;13.20;;;;;;;19.70;72.96;98101.02;1779720;80;21188;-42
2021/09/18 05:07:45;;;;;;;24.60;13.80;;;;;;;19.63;73.17;98105.41;1769825;80;21088;-42
2021/09/18 05:10:11;;;;;;;17.95;12.10;;;;;;;19.58;73.46;98099.11;1766721;80;21032;-41
2021/09/18 05:12:38;;;;;;;15.50;12.18;;;;;;;19.55;73.47;98101.39;1749037;80;21070;-42
2021/09/18 05:15:07;;;;;;;20.05;11.73;;;;;;;19.60;73.51;98105.55;1748652;81;21525;-42
2021/09/18 05:17:35;;;;;;;17.20;12.45;;;;;;;19.64;73.31;98092.42;1750840;80;21606;-42
2021/09/18 05:20:05;;;;;;;18.80;13.13;;;;;;;19.64;73.36;98097.92;1747749;80;20978;-42
2021/09/18 05:22:31;;;;;;;20.12;11.33;;;;;;;19.63;73.44;98092.26;1757583;80;21076;-42
2021/09/18 05:24:58;;;;;;;14.63;11.10;;;;;;;19.65;73.51;98095.34;1757240;80;21100;-42
2021/09/18 05:27:25;;;;;;;20.43;12.93;;;;;;;19.73;73.40;98091.09;1763982;80;21062;-41
2021/09/18 05:29:52;;;;;;;20.05;11.83;;;;;;;19.81;73.24;98089.59;1748363;82;21137;-42
2021/09/18 05:32:19;;;;;;;17.80;12.58;;;;;;;19.84;73.16;98089.48;1748612;80;21018;-42
2021/09/18 05:34:45;;;;;;;16.95;11.57;;;;;;;19.85;72.85;98086.86;1752757;80;21053;-41
2021/09/18 05:37:13;;;;;;;18.90;12.05;;;;;;;19.89;72.82;98088.12;1757026;80;21330;-42
2021/09/18 05:39:39;;;;;;;16.77;11.28;;;;;;;19.95;72.62;98084.91;1756718;80;21083;-42
2021/09/18 05:42:06;;;;;;;21.07;12.18;;;;;;;20.04;72.58;98094.59;1756079;80;21795;-42
2021/09/18 05:44:34;;;;;;;18.15;11.63;;;;;;;20.08;72.03;98093.08;1759298;80;20938;-42
2021/09/18 05:47:01;;;;;;;18.60;11.20;;;;;;;20.06;71.76;98092.75;1775390;80;21582;-42
2021/09/18 05:49:27;;;;;;;15.88;10.95;;;;;;;20.02;71.49;98098.40;1745273;80;21033;-42
2021/09/18 05:51:54;;;;;;;15.50;10.55;;;;;;;20.01;71.44;98092.73;1747953;80;21058;-42
2021/09/18 05:54:20;;;;;;;17.73;11.55;;;;;;;20.02;71.72;98093.50;1751672;80;21206;-42
2021/09/18 05:56:48;;;;;;;15.23;11.15;;;;;;;19.99;71.33;98091.06;1761757;80;20993;-42
2021/09/18 05:59:14;;;;;;;14.45;10.63;;;;;;;19.96;71.57;98090.58;1743764;80;21063;-42
2021/09/18 06:01:41;;;;;;;16.02;10.48;;;;;;;19.96;71.54;98095.47;1749317;80;21594;-42
2021/09/18 06:04:08;;;;;;;14.47;10.00;;;;;;;20.01;70.70;98092.73;1761086;80;21049;-42
2021/09/18 06:06:36;;;;;;;12.98;10.90;;;;;;;20.05;70.58;98097.48;1773983;80;22175;-42
2021/09/18 06:09:03;;;;;;;22.25;11.45;;;;;;;20.07;70.63;98102.55;1768040;80;21208;-42
2021/09/18 06:11:30;;;;;;;13.05;9.43;;;;;;;20.08;70.27;98092.47;1745989;80;20965;-42
2021/09/18 06:13:56;;;;;;;19.30;9.33;;;;;;;20.11;70.70;98092.92;1773223;80;21473;-42
2021/09/18 06:16:23;;;;;;;14.90;9.80;;;;;;;20.21;70.13;98090.36;1742988;82;21047;-42
2021/09/18 06:18:51;;;;;;;18.30;11.12;;;;;;;20.24;70.10;98085.31;1743593;80;21035;-42
2021/09/18 06:21:18;;;;;;;14.30;10.00;;;;;;;20.21;69.72;98085.46;1750701;80;20973;-42
2021/09/18 06:23:46;;;;;;;17.62;10.50;;;;;;;20.14;69.81;98087.87;1764022;80;20988;-42
2021/09/18 06:26:16;;;;;;;17.98;9.68;;;;;;;20.04;69.87;98089.70;1774207;80;21511;-42
2021/09/18 06:28:41;;;;;;;15.55;10.65;;;;;;;20.00;70.14;98093.95;1751073;80;21585;-42
2021/09/18 06:31:08;;;;;;;17.40;10.93;;;;;;;19.99;70.33;98092.44;1744320;80;21131;-42
2021/09/18 06:33:36;;;;;;;17.40;10.80;;;;;;;19.96;70.36;98093.33;1746005;80;21039;-42
2021/09/18 06:36:04;;;;;;;16.20;9.68;;;;;;;19.92;70.57;98095.45;1753693;80;21582;-42
2021/09/18 06:38:31;;;;;;;15.78;10.08;;;;;;;19.92;70.59;98098.20;1745130;80;20969;-42
2021/09/18 06:40:58;;;;;;;16.87;10.35;;;;;;;19.94;70.41;98099.91;1751777;80;21052;-42
2021/09/18 06:43:28;;;;;;;14.87;9.75;;;;;;;19.90;70.17;98099.25;1751118;80;21137;-42
2021/09/18 06:45:54;;;;;;;21.33;10.33;;;;;;;19.83;70.31;98098.17;1749081;80;20900;-42
2021/09/18 06:48:20;;;;;;;16.87;9.58;;;;;;;19.76;70.22;98103.32;1752999;80;21060;-42
2021/09/18 06:50:47;;;;;;;15.23;9.03;;;;;;;19.67;70.46;98107.41;1759876;80;21091;-41
2021/09/18 06:53:14;;;;;;;12.47;7.97;;;;;;;19.63;70.30;98107.38;1773026;80;21058;-42
2021/09/18 06:55:40;;;;;;;15.05;8.20;;;;;;;19.59;70.09;98106.75;1782027;80;21062;-42
2021/09/18 06:58:08;;;;;;;10.85;7.10;;;;;;;19.56;69.55;98104.91;1779789;80;21453;-42
2021/09/18 07:02:19;;;;;;;8.13;5.37;;;;;;;19.62;69.69;98105.84;1778902;79;22181;-41
2021/09/18 07:04:45;;;;;;;6.97;4.85;;;;;;;19.69;69.97;98104.21;1756961;80;20914;-42
2021/09/18 07:07:12;;;;;;;10.85;4.75;;;;;;;19.87;67.51;98107.05;1781671;80;21113;-42
2021/09/18 07:09:39;;;;;;;8.88;4.58;;;;;;;19.86;66.62;98124.76;1781285;80;20979;-41
2021/09/18 07:12:07;;;;;;;6.22;4.20;;;;;;;19.83;66.99;98103.67;1783134;80;20913;-41
2021/09/18 07:14:34;;;;;;;5.17;3.65;;;;;;;19.75;66.30;98100.41;1781444;80;21492;-42
2021/09/18 07:17:03;;;;;;;8.83;3.55;;;;;;;19.69;66.71;98113.84;1787179;79;20962;-42
2021/09/18 07:19:30;;;;;;;4.10;2.85;;;;;;;19.67;66.88;98117.63;1787910;80;21159;-42
2021/09/18 07:21:56;;;;;;;3.98;3.42;;;;;;;19.66;67.00;98112.73;1752814;80;21768;-42
2021/09/18 07:24:24;;;;;;;3.55;3.25;;;;;;;19.64;67.25;98111.06;1752787;80;20914;-42
2021/09/18 07:26:50;;;;;;;3.77;3.47;;;;;;;19.61;66.66;98115.30;1753382;80;21072;-42
2021/09/18 07:29:17;;;;;;;3.35;2.83;;;;;;;19.57;66.32;98113.30;1763787;80;21036;-42
2021/09/18 07:31:43;;;;;;;3.27;2.80;;;;;;;19.50;66.59;98110.99;1756617;81;21038;-42
2021/09/18 07:34:10;;;;;;;3.30;3.00;;;;;;;19.48;66.12;98110.66;1763122;80;21023;-42
2021/09/18 07:36:37;;;;;;;3.92;3.35;;;;;;;19.45;66.59;98113.55;1759730;80;21013;-42
2021/09/18 07:39:04;;;;;;;3.58;3.22;;;;;;;19.42;66.94;98111.05;1756598;81;21008;-42
2021/09/18 07:41:31;;;;;;;4.15;2.90;;;;;;;19.39;67.29;98108.44;1756589;81;21060;-42
2021/09/18 07:44:00;;;;;;;3.75;2.75;;;;;;;19.36;67.11;98112.86;1759231;80;21145;-42
2021/09/18 07:46:28;;;;;;;;;;;;;;;19.39;67.15;98110.58;1723003;83;20897;-42
2021/09/18 07:48:55;;;;;;;5.42;3.58;;;;;;;19.41;66.95;98125.26;1705401;82;20093;-42
2021/09/18 07:51:22;;;;;;;3.50;3.02;;;;;;;19.25;67.35;98120.72;1729668;81;20980;-42
2021/09/18 07:53:49;;;;;;;3.98;3.05;;;;;;;19.23;67.57;98125.11;1723565;83;20917;-42
2021/09/18 07:56:16;;;;;;;3.50;3.20;;;;;;;19.23;67.80;98121.75;1726138;81;21104;-42
2021/09/18 07:58:43;;;;;;;3.58;3.10;;;;;;;19.28;68.05;98122.55;1718265;82;21137;-41
2021/09/18 08:01:10;;;;;;;3.50;3.20;;;;;;;19.31;67.79;98126.41;1713574;83;21061;-42
2021/09/18 08:03:37;;;;;;;3.40;3.10;;;;;;;19.26;66.98;98122.25;1751340;80;21696;-42
2021/09/18 08:06:04;;;;;;;3.98;3.58;;;;;;;19.17;67.29;98127.66;1749629;80;20992;-41
2021/09/18 08:08:31;;;;;;;5.30;3.10;;;;;;;19.10;67.71;98132.05;1710032;82;21149;-42
2021/09/18 08:10:58;;;;;;;2.77;2.50;;;;;;;19.04;68.19;98130.47;1743129;82;20971;-41
2021/09/18 08:13:25;;;;;;;4.17;3.02;;;;;;;19.06;68.32;98137.67;1713155;82;20965;-42
2021/09/18 08:15:52;;;;;;;4.05;1.80;;;;;;;19.02;68.40;98146.64;1667833;85;21059;-42
2021/09/18 08:18:19;;;;;;;2.20;1.17;;;;;;;18.86;67.95;98154.27;1681253;84;21598;-42
2021/09/18 08:20:47;;;;;;;1.42;1.07;;;;;;;18.55;68.37;98160.36;1680132;84;21925;-41
2021/09/18 08:23:13;;;;;;;3.35;1.20;;;;;;;18.27;69.20;98168.09;1669313;84;21094;-42
2021/09/18 08:25:40;;;;;;;4.10;1.55;;;;;;;18.07;69.53;98171.05;1686119;84;21025;-42
2021/09/18 08:28:07;;;;;;;2.30;1.32;;;;;;;17.89;69.83;98174.16;1673555;85;21092;-42
2021/09/18 08:30:35;;;;;;;1.32;1.22;;;;;;;17.65;70.15;98182.68;1672969;85;21036;-42
2021/09/18 08:33:03;;;;;;;;;;;;;;;17.49;70.54;98181.93;1681612;85;21556;-42
2021/09/18 08:35:30;;;;;;;2.00;1.40;;;;;;;17.39;71.08;98180.42;1677103;84;20115;-42
2021/09/18 08:37:57;;;;;;;4.05;1.80;;;;;;;17.21;71.07;98184.84;1673721;85;20953;-41
2021/09/18 08:40:26;;;;;;;2.60;1.60;;;;;;;17.09;71.55;98197.27;1673677;85;21022;-42
2021/09/18 08:42:54;;;;;;;3.72;1.67;;;;;;;17.01;71.67;98200.03;1678332;85;21108;-42
2021/09/18 08:45:20;;;;;;;3.00;1.62;;;;;;;16.94;71.60;98207.08;1736560;82;21167;-42
2021/09/18 08:47:47;;;;;;;5.33;1.80;;;;;;;16.86;71.43;98209.80;1736290;82;21373;-42
2021/09/18 08:50:15;;;;;;;5.00;1.60;;;;;;;16.70;71.57;98211.94;1681061;85;21526;-41
2021/09/18 08:52:42;;;;;;;2.40;1.40;;;;;;;16.59;71.92;98210.07;1681760;85;21052;-41
2021/09/18 08:55:10;;;;;;;3.58;1.17;;;;;;;16.54;71.95;98216.02;1718936;83;21072;-41
2021/09/18 08:57:37;;;;;;;3.58;1.52;;;;;;;16.50;71.92;98213.97;1719183;83;21535;-42
2021/09/18 09:00:06;;;;;;;2.60;1.50;;;;;;;16.44;72.16;98219.77;1658085;85;21025;-41
2021/09/18 09:02:37;;;;;;;1.65;1.30;;;;;;;16.45;71.87;98224.05;1671347;84;20902;-42
2021/09/18 09:05:09;;;;;;;2.15;1.55;;;;;;;16.46;71.21;98217.36;1663612;86;21064;-42
2021/09/18 09:07:37;;;;;;;2.80;2.05;;;;;;;16.48;70.90;98222.59;1663656;86;21064;-42
2021/09/18 09:10:07;;;;;;;2.33;1.65;;;;;;;16.46;71.20;98223.61;1681604;84;21941;-42
2021/09/18 09:12:36;;;;;;;4.12;1.22;;;;;;;16.49;70.69;98232.95;1692981;84;21038;-42
2021/09/18 09:15:07;;;;;;;1.92;1.15;;;;;;;16.52;69.33;98226.61;1704030;84;20988;-42
2021/09/18 09:17:36;;;;;;;3.83;1.07;;;;;;;16.51;69.61;98227.20;1692514;84;20988;-42
2021/09/18 09:20:04;;;;;;;2.43;1.60;;;;;;;16.52;69.40;98229.34;1690718;84;21032;-42
2021/09/18 09:22:44;;;;;;;3.83;1.42;;;;;;;16.52;68.87;98232.08;1675191;85;21782;-42
2021/09/18 09:25:36;;;;;;;2.58;1.37;;;;;;;16.50;68.91;98234.49;1655123;84;21063;-42
2021/09/18 09:28:31;;;;;;;2.58;1.45;;;;;;;16.52;68.77;98238.92;1690660;84;20946;-42
2021/09/18 09:31:17;;;;;;;5.65;1.47;;;;;;;16.50;68.76;98238.59;1674448;84;20966;-42
2021/09/18 09:34:16;;;;;;;2.25;1.30;;;;;;;16.46;69.01;98244.72;1673996;85;21089;-42
2021/09/18 09:36:52;;;;;;;2.45;1.30;;;;;;;16.48;69.05;98240.98;1673996;85;21258;-42
2021/09/18 09:39:22;;;;;;;1.85;1.42;;;;;;;16.52;69.01;98247.91;1674088;85;21017;-42
2021/09/18 09:41:52;;;;;;;2.30;1.80;;;;;;;16.52;68.99;98253.97;1676059;84;21012;-42
2021/09/18 09:44:26;;;;;;;2.25;1.80;;;;;;;16.42;68.30;98249.51;1674050;85;21025;-42
2021/09/18 09:47:07;;;;;;;2.27;1.87;;;;;;;16.34;68.84;98261.81;1674450;85;21096;-42
2021/09/18 09:49:53;;;;;;;4.33;2.10;;;;;;;16.27;68.66;98264.69;1688319;85;21252;-42
2021/09/18 09:52:28;;;;;;;3.50;1.80;;;;;;;16.22;68.87;98265.95;1665426;84;21579;-42
2021/09/18 09:54:59;;;;;;;2.10;1.77;;;;;;;16.17;69.19;98275.28;1665477;85;20987;-42
2021/09/18 09:57:26;;;;;;;2.67;1.80;;;;;;;16.13;69.52;98277.30;1664148;86;21044;-42
2021/09/18 10:00:06;;;;;;;2.22;1.62;;;;;;;16.08;69.74;98276.59;1669511;86;21539;-42
2021/09/18 10:02:36;;;;;;;4.45;1.95;;;;;;;16.09;69.90;98280.88;1656623;83;21120;-42
2021/09/18 10:05:05;;;;;;;;;;;;;;;16.01;69.98;98289.06;1659698;85;20929;-42
2021/09/18 10:07:32;;;;;;;5.10;2.83;;;;;;;15.85;70.38;98286.25;1666530;86;20166;-42
2021/09/18 10:10:00;;;;;;;5.25;2.90;;;;;;;15.60;70.79;98290.82;1666108;85;21018;-42
2021/09/18 10:12:27;;;;;;;3.17;2.30;;;;;;;15.51;71.05;98296.06;1678803;85;21018;-42
2021/09/18 10:14:55;;;;;;;7.08;3.50;;;;;;;15.41;71.42;98292.12;1684529;84;21168;-42
2021/09/18 10:17:24;;;;;;;4.12;2.62;;;;;;;15.30;71.63;98302.47;1745149;82;20968;-42
2021/09/18 10:24:57;;;;;;;3.45;2.90;;;;;;;15.25;71.71;98307.05;1705724;82;21021;-42
2021/09/18 10:27:26;;;;;;;3.75;2.85;;;;;;;15.23;71.42;98301.99;1648734;85;21117;-42
2021/09/18 10:29:53;;;;;;;6.25;3.25;;;;;;;15.20;70.92;98302.21;1712673;82;21023;-42
2021/09/18 10:32:20;;;;;;;6.37;3.00;;;;;;;15.23;71.03;98296.53;1716996;82;20992;-42
2021/09/18 10:34:48;;;;;;;4.53;3.00;;;;;;;15.28;70.83;98300.74;1708001;84;21056;-42
2021/09/18 10:37:36;;;;;;;4.85;2.98;;;;;;;15.28;70.81;98301.52;1707722;84;20949;-42
2021/09/18 10:40:06;;;;;;;3.92;2.27;;;;;;;15.28;70.80;98311.08;1731319;82;21085;-42
2021/09/18 10:42:36;;;;;;;;;;;;;;;15.27;70.17;98313.62;1737585;82;20899;-42
2021/09/18 10:45:05;;;;;;;6.75;2.10;;;;;;;15.28;69.79;98313.03;1728646;83;20183;-42
2021/09/18 10:47:48;;;;;;;1.77;1.67;;;;;;;15.12;70.05;98319.91;1728651;83;20965;-42
2021/09/18 10:50:25;;;;;;;3.72;2.10;;;;;;;15.10;69.44;98323.63;1728979;82;20993;-42
2021/09/18 10:53:09;;;;;;;5.75;1.80;;;;;;;15.03;69.64;98326.48;1728389;82;21127;-42
2021/09/18 10:55:56;;;;;;;2.42;1.85;;;;;;;15.00;69.58;98325.19;1710727;82;21030;-42
2021/09/18 10:58:24;;;;;;;4.83;1.80;;;;;;;14.97;69.24;98318.58;1715176;82;21504;-42
2021/09/18 11:00:54;;;;;;;3.35;1.80;;;;;;;14.90;69.24;98320.66;1748741;82;21024;-42
2021/09/18 11:03:41;;;;;;;3.02;1.50;;;;;;;14.88;69.27;98322.42;1722490;81;21895;-42
2021/09/18 11:06:08;;;;;;;4.33;1.75;;;;;;;14.91;69.58;98322.20;1718962;83;21162;-42
2021/09/18 11:08:37;;;;;;;1.92;1.50;;;;;;;14.95;69.18;98325.06;1741083;82;20997;-42
2021/09/18 11:11:11;;;;;;;1.47;1.20;;;;;;;15.00;69.12;98328.69;1718932;83;20973;-42
2021/09/18 11:13:43;;;;;;;4.35;1.70;;;;;;;15.01;69.25;98327.48;1718559;83;21546;-42
2021/09/18 11:16:27;;;;;;;3.58;1.75;;;;;;;15.08;69.08;98332.07;1718666;83;21023;-42
2021/09/18 11:19:00;;;;;;;3.00;1.75;;;;;;;15.11;68.24;98327.91;1725383;82;21108;-42
2021/09/18 11:21:35;;;;;;;3.83;1.80;;;;;;;15.26;67.83;98324.95;1733012;81;21486;-42
2021/09/18 11:24:21;;;;;;;1.55;1.40;;;;;;;15.37;66.75;98325.55;1718672;83;21036;-42
2021/09/18 11:26:58;;;;;;;1.40;1.20;;;;;;;15.43;66.92;98323.89;1718780;83;21004;-42
2021/09/18 11:29:30;;;;;;;1.40;1.30;;;;;;;15.48;66.49;98322.05;1730390;82;21045;-42
2021/09/18 11:32:18;;;;;;;3.27;1.50;;;;;;;15.53;65.96;98327.84;1749392;82;21758;-42
2021/09/18 11:34:54;;;;;;;2.45;1.60;;;;;;;15.62;65.62;98321.83;1751411;82;21044;-41
2021/09/18 11:37:28;;;;;;;2.27;1.55;;;;;;;15.65;65.45;98325.08;1738103;81;21509;-42
2021/09/18 11:40:07;;;;;;;2.27;1.60;;;;;;;15.64;65.51;98330.36;1719859;82;20977;-42
2021/09/18 11:42:43;;;;;;;1.98;1.75;;;;;;;15.60;65.54;98330.44;1718792;83;21016;-42